Ana Sayfa
METAR-TAF:

METAR-TAF

Havaalanları :

Çongçing Jiangbei Uluslararası Havalimanı

Çongçing, Çin

Enlem: 29-31N, Boylam: 106-29E, yükseklik: 351 m

Güncel hava durumu gözlemi

Rapor saat 14:00 UTC de 41 dakika önce yapıldı.
Rüzgar kuzeydan 8 kt
Sıcaklık 30°C
Nem 66%
Basınç 1002 hPa
Görüş mesafesi 10 km veya daha fazla
1500 m altında bulut yok ve kümülonimbus yok

METAR: ZUCK 221400Z 01004MPS CAVOK 30/23 Q1002 NOSIG

Saat: 22:41 (14:41 UTC)

Tahmin

Rapor saat 09:13 UTC de 5 saat ve 28 dakika önce yapıldı.
Ayın 22'si saat 12 UTC'den ayın 23'si saat 12 UTC'ye kadar geçerli Tahmin
Rüzgar doğu/güneydoğudan 8 kt
Görüş mesafesi: 6000 m
3300 ft yükseklikte parçalı bulutlu
Geçici
ayın 23'si saat 06 UTC'den ayın 23'si saat 12 UTC'ye kadar
3300 ft yükseklikte parçalı bulutlu
4000 ft yükseklikte az bulutlu, Kümülonimbus.

TAF: ZUCK 220913Z 2212/2312 12004MPS 6000 SCT033 TX39/2309Z TN30/2222Z TEMPO 2306/2312 SCT033 FEW040CB

4.000'den fazla havaalanı için hava durumu gözlemleri ve tahminleri (METAR ve TAF raporları).

Kullanılabilir istasyonlar harita üzerinde sarı ve kırmızı noktalarla gösterilir.

İstasyonun adını görmek için fareyi noktanın üzerinde gezdirin.

Sonrasında hava gözlem ve tahminlerini görmek için tıklayın.

Haritayı değiştirmek için: yaklaştırmak için siyah artı işaretli yeşil düğmeye ve uzaklaştırmak için de eksi işaretli düğmeye hızla tıklayın; bitişik haritalar için yeşil okları kullanın.


METAR-TAF: